createdAt,value
2022-08-26T00:02:28.741Z,22.5
2022-08-26T00:08:19.921Z,22.5
2022-08-26T00:14:13.734Z,23
2022-08-26T00:20:05.899Z,23.3
2022-08-26T00:25:58.627Z,23.2
2022-08-26T00:31:55.347Z,23.2
2022-08-26T00:38:58.490Z,23.3
2022-08-26T00:44:54.391Z,23
2022-08-26T00:50:45.216Z,23
2022-08-26T00:56:37.057Z,23
2022-08-26T01:02:32.975Z,23.1
2022-08-26T01:08:33.636Z,22.9
2022-08-26T01:14:25.788Z,22.9
2022-08-26T01:20:17.645Z,23
2022-08-26T01:26:15.330Z,22.8
2022-08-26T01:32:11.548Z,22.8
2022-08-26T01:38:03.749Z,22.8
2022-08-26T01:43:55.856Z,22.7
2022-08-26T01:49:50.843Z,22.7
2022-08-26T01:55:44.658Z,22.9
2022-08-26T02:01:38.705Z,22.7
2022-08-26T02:07:33.245Z,22.7
2022-08-26T02:13:25.255Z,22.7
2022-08-26T02:19:17.534Z,22.7
2022-08-26T02:25:11.481Z,22.5
2022-08-26T02:31:05.747Z,22.4
2022-08-26T02:37:06.943Z,22.5
2022-08-26T02:43:08.512Z,22.5
2022-08-26T02:49:08.502Z,22.5
2022-08-26T02:55:03.781Z,22.3
2022-08-26T03:00:55.282Z,22.1
2022-08-26T03:06:52.831Z,21.9
2022-08-26T03:12:47.344Z,21.9
2022-08-26T03:18:42.692Z,22
2022-08-26T03:24:46.062Z,21.9
2022-08-26T03:30:37.510Z,21.6
2022-08-26T03:36:35.132Z,21.7
2022-08-26T03:42:28.450Z,21.8
2022-08-26T03:48:19.845Z,21.8
2022-08-26T03:54:12.053Z,21.6
2022-08-26T04:00:04.518Z,21.6
2022-08-26T04:05:57.435Z,21.9
2022-08-26T04:11:50.466Z,21.8
2022-08-26T04:17:43.115Z,21.7
2022-08-26T04:23:47.354Z,21.9
2022-08-26T04:29:38.428Z,21.8
2022-08-26T04:35:31.317Z,21.7
2022-08-26T04:41:28.404Z,21.9
2022-08-26T04:47:28.100Z,22
2022-08-26T04:53:22.825Z,21.8
2022-08-26T04:59:14.975Z,21.9
2022-08-26T05:05:09.954Z,21.7
2022-08-26T05:11:03.349Z,21.8
2022-08-26T05:16:58.936Z,21.9
2022-08-26T05:22:51.792Z,22
2022-08-26T05:28:44.509Z,21.9
2022-08-26T05:34:40.650Z,22
2022-08-26T05:40:40.434Z,22.2
2022-08-26T05:46:31.869Z,22.1
2022-08-26T05:52:24.602Z,21.9
2022-08-26T05:58:18.051Z,22
2022-08-26T06:04:11.039Z,22.2
2022-08-26T06:10:30.801Z,22.1
2022-08-26T06:16:25.890Z,22.2
2022-08-26T06:22:20.633Z,22.3
2022-08-26T06:28:14.454Z,22.1
2022-08-26T06:34:10.846Z,22.4
2022-08-26T06:40:03.240Z,22.3
2022-08-26T06:45:56.284Z,22.3
2022-08-26T06:51:50.075Z,22.5
2022-08-26T06:57:44.897Z,22.6
2022-08-26T07:03:39.485Z,22.2
2022-08-26T07:09:35.032Z,22.3
2022-08-26T07:15:31.565Z,22.3
2022-08-26T07:21:26.585Z,22.5
2022-08-26T07:27:18.432Z,22.6
2022-08-26T07:33:10.914Z,22.3
2022-08-26T07:39:02.475Z,22.5
2022-08-26T07:44:57.962Z,22.5
2022-08-26T07:50:49.035Z,22.2
2022-08-26T07:56:44.262Z,22.3
2022-08-26T08:02:40.495Z,22.2
2022-08-26T08:08:36.436Z,22.5
2022-08-26T08:14:27.990Z,22.4
2022-08-26T08:20:21.530Z,22.4
2022-08-26T08:26:15.389Z,22.7
2022-08-26T08:32:11.498Z,22.7
2022-08-26T08:38:05.983Z,22.7
2022-08-26T08:44:00.328Z,22.6
2022-08-26T08:49:53.929Z,22.8
2022-08-26T08:55:45.035Z,22.5
2022-08-26T09:01:38.072Z,22.7
2022-08-26T09:07:32.233Z,23
2022-08-26T09:13:27.144Z,22.9
2022-08-26T09:19:21.633Z,23
2022-08-26T09:25:13.017Z,22.8
2022-08-26T09:31:11.134Z,23
2022-08-26T09:37:02.817Z,22.6
2022-08-26T09:42:59.875Z,23.1
2022-08-26T09:48:53.150Z,23.1
2022-08-26T09:54:50.666Z,23
2022-08-26T10:00:46.194Z,23.1
2022-08-26T10:06:37.478Z,23
2022-08-26T10:12:29.865Z,23
2022-08-26T10:18:23.233Z,23.2
2022-08-26T10:24:21.556Z,22.8
2022-08-26T10:30:15.402Z,22.9
2022-08-26T10:36:06.736Z,22.9
2022-08-26T10:42:09.979Z,22.7
2022-08-26T10:48:03.641Z,22.6
2022-08-26T10:53:56.382Z,22.9
2022-08-26T10:59:51.873Z,22.9
2022-08-26T11:05:42.214Z,23.1
2022-08-26T11:11:35.321Z,23.1
2022-08-26T11:17:27.145Z,22.9
2022-08-26T11:23:28.205Z,22.8
2022-08-26T11:29:19.619Z,22.6
2022-08-26T11:35:13.442Z,22.5
2022-08-26T11:41:07.881Z,22.7
2022-08-26T11:47:02.024Z,23.1
2022-08-26T11:53:00.140Z,23
2022-08-26T11:58:53.157Z,23
2022-08-26T12:04:45.309Z,23.4
2022-08-26T12:10:37.367Z,23.3
2022-08-26T12:16:28.724Z,23.4
2022-08-26T12:22:20.892Z,23.7
2022-08-26T12:28:14.984Z,23.8
2022-08-26T12:34:17.478Z,23.5
2022-08-26T12:40:15.872Z,23.9
2022-08-26T12:46:09.287Z,23.5
2022-08-26T12:52:01.009Z,23.6
2022-08-26T12:57:52.692Z,23.5
2022-08-26T13:03:45.218Z,23.4
2022-08-26T13:09:37.816Z,23.5
2022-08-26T13:15:30.317Z,23.9
2022-08-26T13:21:24.038Z,23.7
2022-08-26T13:27:22.031Z,23.9
2022-08-26T13:33:27.813Z,23.8
2022-08-26T13:39:22.076Z,24.1
2022-08-26T13:45:13.303Z,24.3
2022-08-26T13:51:07.551Z,24.3
2022-08-26T13:57:00.991Z,23.7
2022-08-26T14:02:52.516Z,24
2022-08-26T14:08:43.951Z,23.6
2022-08-26T14:14:37.170Z,24.1
2022-08-26T14:20:29.480Z,23.8
2022-08-26T14:26:28.486Z,23.7
2022-08-26T14:32:21.371Z,24.2
2022-08-26T14:38:13.538Z,23.9
2022-08-26T14:44:05.512Z,24.1
2022-08-26T14:49:59.262Z,24.1
2022-08-26T14:55:50.222Z,24.1
2022-08-26T15:01:41.731Z,23.9
2022-08-26T15:07:35.285Z,23.5
2022-08-26T15:13:26.995Z,23.9
2022-08-26T15:19:18.453Z,23.4
2022-08-26T15:25:09.701Z,23.4
2022-08-26T15:31:02.629Z,23.4
2022-08-26T15:37:11.965Z,23.4
2022-08-26T15:43:18.351Z,23.3
2022-08-26T15:49:18.869Z,23.3
2022-08-26T15:55:10.821Z,23.6
2022-08-26T16:01:10.490Z,23.7
2022-08-26T16:07:12.308Z,23.5
2022-08-26T16:13:03.742Z,23.4
2022-08-26T16:19:05.607Z,23.4
2022-08-26T16:24:58.490Z,23.1
2022-08-26T16:30:49.730Z,23.3
2022-08-26T16:36:42.845Z,23.1
2022-08-26T16:42:34.628Z,23.2
2022-08-26T16:48:25.892Z,23.1
2022-08-26T16:54:17.846Z,23.2
2022-08-26T17:00:09.209Z,23.2
2022-08-26T17:06:00.503Z,23.2
2022-08-26T17:11:52.783Z,23
2022-08-26T17:17:44.739Z,23
2022-08-26T17:23:37.131Z,22.8
2022-08-26T17:29:31.996Z,22.7
2022-08-26T17:35:52.818Z,22.5
2022-08-26T17:42:12.259Z,22.6
2022-08-26T17:48:49.603Z,22.5
2022-08-26T17:54:53.975Z,22.3
2022-08-26T18:00:45.235Z,22.3
2022-08-26T18:06:35.935Z,22
2022-08-26T18:12:27.256Z,21.9
2022-08-26T18:18:22.234Z,21.9
2022-08-26T18:24:14.121Z,21.9
2022-08-26T18:30:05.616Z,22
2022-08-26T18:36:04.399Z,21.8
2022-08-26T18:41:54.842Z,21.9
2022-08-26T18:47:46.253Z,21.9
2022-08-26T18:53:37.630Z,21.8
2022-08-26T18:59:36.170Z,21.9
2022-08-26T19:05:42.985Z,21.9
2022-08-26T19:11:37.170Z,21.8
2022-08-26T19:17:34.490Z,21.8
2022-08-26T19:23:31.734Z,21.8
2022-08-26T19:29:24.338Z,21.8
2022-08-26T19:35:16.567Z,21.8
2022-08-26T19:41:07.220Z,21.6
2022-08-26T19:46:58.123Z,21.6
2022-08-26T19:52:49.866Z,21.7
2022-08-26T19:58:42.452Z,21.7
2022-08-26T20:04:33.585Z,21.8
2022-08-26T20:10:25.787Z,21.6
2022-08-26T20:16:16.091Z,21.4
2022-08-26T20:22:05.800Z,21.5
2022-08-26T20:27:56.849Z,21.6
2022-08-26T20:33:47.583Z,21.5
2022-08-26T20:39:38.446Z,21.4
2022-08-26T20:45:30.346Z,21.2
2022-08-26T20:51:22.820Z,21.3
2022-08-26T20:57:13.912Z,21.2
2022-08-26T21:03:04.835Z,21.3
2022-08-26T21:08:55.771Z,21.1
2022-08-26T21:14:49.615Z,21.1
2022-08-26T21:20:40.776Z,21
2022-08-26T21:26:32.700Z,21.1
2022-08-26T21:32:24.560Z,21.1
2022-08-26T21:38:14.719Z,20.9
2022-08-26T21:44:07.833Z,20.9
2022-08-26T21:50:00.330Z,20.9
2022-08-26T21:55:52.377Z,20.8
2022-08-26T22:01:43.396Z,21
2022-08-26T22:07:36.163Z,20.9
2022-08-26T22:13:27.079Z,21
2022-08-26T22:19:19.648Z,21
2022-08-26T22:25:13.171Z,21
2022-08-26T22:31:03.961Z,20.9
2022-08-26T22:36:56.156Z,21
2022-08-26T22:42:55.515Z,20.9
2022-08-26T22:48:50.308Z,20.8
2022-08-26T22:54:46.610Z,20.7
2022-08-26T23:00:37.950Z,20.6
2022-08-26T23:06:30.316Z,20.6
2022-08-26T23:12:20.439Z,20.5
2022-08-26T23:18:11.630Z,20.4
2022-08-26T23:24:03.371Z,20.4
2022-08-26T23:29:55.301Z,20.3
2022-08-26T23:35:46.083Z,20.3
2022-08-26T23:41:40.590Z,20.3
2022-08-26T23:47:31.780Z,20.3
2022-08-26T23:53:24.023Z,20.2
2022-08-26T23:59:14.893Z,20.3
